createdAt,value
2023-01-24T00:01:33.090Z,49.20
2023-01-24T00:04:02.300Z,49.20
2023-01-24T00:06:30.139Z,49.20
2023-01-24T00:08:58.090Z,49.20
2023-01-24T00:11:26.100Z,49.10
2023-01-24T00:13:53.974Z,49.10
2023-01-24T00:16:23.441Z,49.10
2023-01-24T00:18:51.870Z,49.20
2023-01-24T00:21:23.234Z,49.20
2023-01-24T00:23:52.994Z,49.10
2023-01-24T00:26:22.139Z,49.20
2023-01-24T00:28:50.235Z,49.10
2023-01-24T00:31:18.534Z,49.20
2023-01-24T00:33:46.546Z,49.20
2023-01-24T00:36:14.441Z,49.20
2023-01-24T00:38:43.895Z,49.20
2023-01-24T00:41:11.857Z,49.20
2023-01-24T00:43:39.740Z,49.10
2023-01-24T00:46:08.443Z,49.20
2023-01-24T00:48:36.721Z,49.20
2023-01-24T00:51:04.955Z,49.20
2023-01-24T00:53:33.072Z,49.20
2023-01-24T00:56:02.251Z,49.20
2023-01-24T00:58:30.133Z,49.20
2023-01-24T01:01:01.244Z,49.20
2023-01-24T01:03:30.333Z,49.20
2023-01-24T01:06:02.762Z,49.20
2023-01-24T01:08:30.929Z,49.20
2023-01-24T01:10:58.930Z,49.20
2023-01-24T01:13:29.097Z,49.20
2023-01-24T01:16:04.095Z,49.20
2023-01-24T01:18:32.200Z,49.20
2023-01-24T01:21:00.460Z,49.20
2023-01-24T01:23:28.478Z,49.20
2023-01-24T01:26:00.676Z,49.20
2023-01-24T01:28:30.555Z,49.20
2023-01-24T01:30:59.254Z,49.20
2023-01-24T01:33:27.372Z,49.20
2023-01-24T01:35:55.652Z,49.20
2023-01-24T01:38:25.450Z,49.20
2023-01-24T01:40:53.415Z,49.20
2023-01-24T01:43:22.974Z,49.20
2023-01-24T01:45:54.246Z,49.20
2023-01-24T01:48:27.208Z,49.20
2023-01-24T01:51:01.870Z,49.20
2023-01-24T01:53:35.766Z,49.20
2023-01-24T01:56:07.912Z,49.20
2023-01-24T01:58:36.696Z,49.20
2023-01-24T02:01:06.479Z,49.20
2023-01-24T02:03:41.555Z,49.20
2023-01-24T02:06:30.638Z,49.20
2023-01-24T02:08:59.866Z,49.20
2023-01-24T02:11:48.975Z,49.20
2023-01-24T02:14:39.011Z,49.20
2023-01-24T02:17:08.224Z,49.20
2023-01-24T02:20:12.444Z,49.20
2023-01-24T02:22:51.000Z,49.20
2023-01-24T02:25:23.823Z,49.20
2023-01-24T02:27:53.661Z,49.20
2023-01-24T02:30:21.682Z,49.20
2023-01-24T02:32:49.497Z,49.20
2023-01-24T02:35:28.443Z,49.20
2023-01-24T02:37:58.228Z,49.20
2023-01-24T02:40:28.898Z,49.20
2023-01-24T02:43:02.372Z,49.20
2023-01-24T02:45:33.797Z,49.20
2023-01-24T02:48:01.680Z,49.30
2023-01-24T02:50:51.954Z,49.20
2023-01-24T02:53:31.444Z,49.30
2023-01-24T02:56:17.665Z,49.20
2023-01-24T02:58:47.481Z,49.20
2023-01-24T03:01:16.668Z,49.20
2023-01-24T03:03:44.940Z,49.20
2023-01-24T03:06:14.097Z,49.20
2023-01-24T03:08:42.763Z,49.30
2023-01-24T03:11:12.742Z,49.20
2023-01-24T03:13:58.265Z,49.20
2023-01-24T03:16:45.083Z,49.20
2023-01-24T03:19:30.466Z,49.20
2023-01-24T03:22:15.923Z,49.20
2023-01-24T03:25:01.458Z,49.20
2023-01-24T03:27:46.988Z,49.20
2023-01-24T03:30:32.780Z,49.20
2023-01-24T03:33:20.420Z,49.20
2023-01-24T03:35:54.608Z,49.20
2023-01-24T03:38:41.289Z,49.20
2023-01-24T03:41:09.465Z,49.20
2023-01-24T03:43:37.314Z,49.20
2023-01-24T03:46:05.642Z,49.20
2023-01-24T03:48:37.408Z,49.20
2023-01-24T03:51:23.679Z,49.20
2023-01-24T03:53:51.771Z,49.20
2023-01-24T03:56:19.666Z,49.20
2023-01-24T03:58:47.522Z,49.20
2023-01-24T04:01:15.561Z,49.20
2023-01-24T04:03:44.836Z,49.20
2023-01-24T04:06:12.859Z,49.20
2023-01-24T04:08:40.708Z,49.20
2023-01-24T04:11:08.579Z,49.20
2023-01-24T04:13:36.388Z,49.20
2023-01-24T04:16:04.357Z,49.20
2023-01-24T04:18:32.230Z,49.90
2023-01-24T04:21:04.372Z,49.20
2023-01-24T04:23:32.791Z,49.20
2023-01-24T04:26:01.818Z,49.20
2023-01-24T04:28:29.672Z,49.20
2023-01-24T04:31:01.380Z,49.20
2023-01-24T04:33:29.909Z,49.20
2023-01-24T04:36:01.051Z,49.20
2023-01-24T04:38:30.269Z,49.20
2023-01-24T04:41:02.532Z,49.20
2023-01-24T04:43:30.689Z,49.20
2023-01-24T04:45:59.905Z,49.20
2023-01-24T04:48:27.866Z,49.20
2023-01-24T04:51:00.321Z,49.20
2023-01-24T04:53:28.250Z,49.20
2023-01-24T04:56:02.700Z,49.20
2023-01-24T04:58:30.844Z,49.20
2023-01-24T05:00:59.659Z,49.30
2023-01-24T05:03:28.564Z,49.30
2023-01-24T05:05:57.036Z,49.30
2023-01-24T05:08:25.096Z,49.20
2023-01-24T05:10:52.990Z,49.20
2023-01-24T05:13:22.222Z,49.30
2023-01-24T05:15:51.208Z,49.20
2023-01-24T05:18:20.431Z,49.30
2023-01-24T05:20:48.326Z,49.20
2023-01-24T05:23:16.342Z,49.30
2023-01-24T05:25:44.196Z,49.30
2023-01-24T05:28:12.201Z,49.30
2023-01-24T05:30:41.452Z,49.30
2023-01-24T05:33:09.349Z,49.30
2023-01-24T05:35:37.205Z,49.30
2023-01-24T05:38:05.105Z,49.30
2023-01-24T05:40:32.961Z,49.30
2023-01-24T05:43:00.816Z,49.30
2023-01-24T05:45:28.740Z,49.30
2023-01-24T05:47:58.686Z,49.30
2023-01-24T05:50:26.500Z,49.30
2023-01-24T05:52:54.360Z,49.30
2023-01-24T05:55:22.474Z,49.30
2023-01-24T05:57:50.435Z,49.30
2023-01-24T06:00:19.060Z,49.30
2023-01-24T06:02:46.994Z,49.30
2023-01-24T06:05:16.395Z,49.30
2023-01-24T06:07:44.272Z,49.30
2023-01-24T06:10:12.560Z,49.30
2023-01-24T06:12:40.438Z,49.30
2023-01-24T06:15:09.550Z,49.30
2023-01-24T06:17:37.406Z,49.30
2023-01-24T06:20:07.532Z,49.30
2023-01-24T06:22:44.629Z,49.30
2023-01-24T06:25:20.689Z,49.30
2023-01-24T06:27:49.284Z,49.30
2023-01-24T06:30:18.853Z,49.30
2023-01-24T06:33:09.184Z,49.30
2023-01-24T06:35:46.579Z,49.30
2023-01-24T06:38:22.180Z,49.30
2023-01-24T06:40:53.047Z,49.30
2023-01-24T06:43:21.396Z,49.30
2023-01-24T06:45:49.607Z,49.20
2023-01-24T06:48:17.580Z,49.30
2023-01-24T06:50:45.555Z,49.30
2023-01-24T06:53:15.243Z,49.30
2023-01-24T06:55:47.836Z,49.30
2023-01-24T06:58:15.828Z,49.30
2023-01-24T07:00:44.014Z,49.30
2023-01-24T07:03:12.420Z,49.20
2023-01-24T07:05:41.137Z,49.30
2023-01-24T07:08:09.159Z,49.30
2023-01-24T07:10:37.262Z,49.20
2023-01-24T07:13:06.489Z,49.30
2023-01-24T07:15:34.655Z,49.30
2023-01-24T07:18:07.609Z,49.30
2023-01-24T07:20:35.755Z,49.30
2023-01-24T07:23:04.138Z,49.30
2023-01-24T07:25:32.912Z,49.30
2023-01-24T07:28:01.311Z,49.30
2023-01-24T07:30:30.555Z,49.30
2023-01-24T07:32:58.410Z,49.30
2023-01-24T07:35:26.320Z,49.20
2023-01-24T07:37:54.191Z,49.30
2023-01-24T07:40:22.001Z,49.30
2023-01-24T07:42:49.862Z,49.30
2023-01-24T07:45:17.836Z,49.30
2023-01-24T07:47:47.019Z,49.30
2023-01-24T07:50:14.894Z,49.30
2023-01-24T07:52:42.755Z,49.30
2023-01-24T07:55:11.396Z,49.30
2023-01-24T07:57:39.284Z,49.30
2023-01-24T08:00:08.391Z,49.30
2023-01-24T08:02:36.266Z,49.30
2023-01-24T08:05:06.063Z,49.30
2023-01-24T08:07:33.937Z,49.30
2023-01-24T08:10:01.823Z,49.20
2023-01-24T08:12:29.706Z,49.40
2023-01-24T08:14:57.572Z,49.30
2023-01-24T08:17:25.481Z,49.20
2023-01-24T08:19:57.029Z,49.20
2023-01-24T08:22:27.577Z,49.30
2023-01-24T08:24:55.497Z,49.30
2023-01-24T08:27:23.669Z,49.20
2023-01-24T08:29:51.555Z,49.20
2023-01-24T08:32:19.505Z,49.20
2023-01-24T08:34:47.536Z,49.30
2023-01-24T08:37:15.402Z,49.40
2023-01-24T08:39:44.615Z,49.40
2023-01-24T08:42:13.595Z,50.00
2023-01-24T08:44:41.456Z,49.30
2023-01-24T08:47:09.507Z,49.20
2023-01-24T08:49:37.334Z,49.30
2023-01-24T08:52:05.553Z,49.30
2023-01-24T08:54:34.154Z,49.40
2023-01-24T08:57:04.061Z,49.30
2023-01-24T08:59:31.962Z,49.40
2023-01-24T09:01:59.830Z,49.90
2023-01-24T09:04:28.100Z,49.40
2023-01-24T09:06:55.979Z,49.40
2023-01-24T09:09:25.364Z,49.40
2023-01-24T09:11:54.207Z,49.40
2023-01-24T09:14:23.661Z,49.40
2023-01-24T09:16:51.581Z,49.30
2023-01-24T09:19:19.450Z,49.30
2023-01-24T09:21:51.948Z,49.40
2023-01-24T09:24:20.454Z,49.40
2023-01-24T09:26:48.461Z,49.40
2023-01-24T09:29:16.415Z,49.40
2023-01-24T09:31:45.749Z,49.40
2023-01-24T09:34:15.026Z,49.40
2023-01-24T09:36:42.991Z,49.40
2023-01-24T09:39:10.833Z,49.30
2023-01-24T09:41:57.752Z,49.40
2023-01-24T09:44:44.492Z,49.40
2023-01-24T09:47:21.635Z,49.40
2023-01-24T09:49:52.872Z,49.40
2023-01-24T09:52:31.748Z,49.40
2023-01-24T09:55:05.570Z,49.40
2023-01-24T09:57:44.583Z,49.40
2023-01-24T10:00:20.407Z,49.40
2023-01-24T10:02:49.915Z,49.40
2023-01-24T10:05:19.143Z,49.40
2023-01-24T10:08:05.980Z,49.40
2023-01-24T10:10:47.349Z,49.40
2023-01-24T10:13:43.492Z,49.40
2023-01-24T10:16:24.845Z,49.40
2023-01-24T10:19:05.127Z,49.40
2023-01-24T10:21:51.557Z,49.40
2023-01-24T10:24:23.032Z,49.40
2023-01-24T10:26:52.835Z,49.40
2023-01-24T10:29:23.359Z,49.40
2023-01-24T10:31:58.406Z,49.40
2023-01-24T10:34:33.845Z,49.40
2023-01-24T10:37:07.692Z,49.40
2023-01-24T10:39:36.109Z,49.40
2023-01-24T10:42:05.191Z,49.30
2023-01-24T10:44:37.086Z,49.30
2023-01-24T10:47:24.730Z,49.40
2023-01-24T10:50:00.008Z,49.40
2023-01-24T10:52:28.305Z,49.40
2023-01-24T10:54:57.751Z,49.40
2023-01-24T10:57:38.769Z,49.40
2023-01-24T11:00:19.586Z,49.40
2023-01-24T11:02:51.445Z,49.40
2023-01-24T11:05:22.563Z,49.30
2023-01-24T11:07:53.631Z,49.40
2023-01-24T11:10:23.927Z,49.40
2023-01-24T11:12:55.352Z,49.30
2023-01-24T11:15:27.369Z,49.40
2023-01-24T11:17:58.384Z,49.40
2023-01-24T11:20:35.559Z,49.40
2023-01-24T11:23:05.910Z,49.40
2023-01-24T11:25:33.935Z,49.40
2023-01-24T11:28:01.811Z,49.40
2023-01-24T11:30:35.231Z,49.40
2023-01-24T11:33:23.459Z,49.30
2023-01-24T11:35:56.335Z,49.40
2023-01-24T11:38:28.541Z,49.40
2023-01-24T11:41:07.359Z,49.40
2023-01-24T11:43:52.973Z,49.40
2023-01-24T11:46:43.680Z,49.40
2023-01-24T11:49:27.321Z,49.40
2023-01-24T11:52:05.285Z,49.40
2023-01-24T11:54:46.329Z,50.00
2023-01-24T11:57:27.084Z,49.40
2023-01-24T12:00:05.092Z,49.40
2023-01-24T12:02:55.008Z,49.40
2023-01-24T12:05:43.099Z,49.40
2023-01-24T12:08:31.274Z,49.40
2023-01-24T12:11:22.880Z,49.40
2023-01-24T12:14:03.661Z,50.00
2023-01-24T12:16:47.428Z,49.40
2023-01-24T12:19:38.337Z,49.40
2023-01-24T12:22:15.118Z,49.40
2023-01-24T12:24:50.008Z,49.40
2023-01-24T12:27:21.420Z,49.40
2023-01-24T12:29:57.307Z,49.40
2023-01-24T12:32:30.281Z,49.40
2023-01-24T12:35:03.819Z,49.40
2023-01-24T12:37:37.973Z,49.40
2023-01-24T12:40:17.912Z,49.40
2023-01-24T12:42:57.649Z,49.40
2023-01-24T12:45:30.754Z,49.40
2023-01-24T12:48:02.081Z,49.40
2023-01-24T12:50:39.891Z,49.40
2023-01-24T12:53:13.597Z,49.40
2023-01-24T12:55:49.625Z,49.30
2023-01-24T12:58:21.662Z,49.40
2023-01-24T13:01:01.555Z,49.40
2023-01-24T13:03:57.873Z,49.40
2023-01-24T13:06:34.844Z,49.40
2023-01-24T13:09:11.865Z,49.40
2023-01-24T13:11:46.469Z,49.40
2023-01-24T13:14:20.945Z,49.40
2023-01-24T13:17:17.564Z,49.40
2023-01-24T13:20:16.013Z,49.40
2023-01-24T13:22:56.084Z,49.40
2023-01-24T13:25:46.138Z,49.50
2023-01-24T13:28:24.605Z,49.50
2023-01-24T13:30:58.798Z,49.40
2023-01-24T13:33:34.622Z,49.50
2023-01-24T13:36:07.367Z,49.50
2023-01-24T13:38:42.727Z,49.40
2023-01-24T13:41:17.925Z,49.50
2023-01-24T13:44:30.268Z,49.50
2023-01-24T13:47:03.089Z,49.50
2023-01-24T13:49:38.151Z,49.50
2023-01-24T13:52:21.865Z,49.50
2023-01-24T13:54:49.711Z,49.50
2023-01-24T13:57:27.689Z,49.50
2023-01-24T14:00:19.806Z,49.50
2023-01-24T14:03:04.543Z,49.50
2023-01-24T14:05:44.371Z,49.50
2023-01-24T14:08:40.104Z,49.50
2023-01-24T14:11:20.528Z,49.50
2023-01-24T14:14:01.111Z,49.50
2023-01-24T14:17:26.262Z,49.50
2023-01-24T14:19:56.410Z,49.50
2023-01-24T14:22:33.873Z,49.60
2023-01-24T14:25:06.687Z,49.50
2023-01-24T14:27:38.199Z,49.50
2023-01-24T14:30:33.340Z,49.50
2023-01-24T14:33:08.208Z,49.50
2023-01-24T14:35:58.731Z,49.50
2023-01-24T14:38:26.606Z,49.50
2023-01-24T14:40:55.609Z,49.50
2023-01-24T14:43:28.665Z,49.50
2023-01-24T14:45:56.960Z,49.50
2023-01-24T14:48:27.222Z,49.50
2023-01-24T14:50:59.882Z,49.50
2023-01-24T14:53:29.323Z,49.50
2023-01-24T14:56:01.735Z,49.50
2023-01-24T14:58:31.424Z,49.50
2023-01-24T15:01:01.460Z,49.50
2023-01-24T15:03:33.556Z,49.50
2023-01-24T15:06:03.806Z,49.50
2023-01-24T15:08:32.458Z,49.50
2023-01-24T15:11:06.486Z,49.50
2023-01-24T15:13:37.222Z,49.50
2023-01-24T15:16:07.271Z,49.50
2023-01-24T15:18:42.534Z,49.50
2023-01-24T15:21:32.754Z,49.50
2023-01-24T15:24:02.044Z,49.50
2023-01-24T15:26:40.997Z,49.50
2023-01-24T15:29:44.297Z,49.50
2023-01-24T15:32:40.370Z,49.50
2023-01-24T15:35:36.242Z,49.50
2023-01-24T15:38:24.581Z,49.50
2023-01-24T15:41:15.650Z,49.50
2023-01-24T15:43:49.087Z,49.50
2023-01-24T15:46:44.032Z,49.50
2023-01-24T15:49:35.329Z,49.50
2023-01-24T15:52:20.866Z,49.50
2023-01-24T15:54:53.377Z,49.60
2023-01-24T15:57:24.665Z,49.50
2023-01-24T15:59:56.505Z,49.60
2023-01-24T16:02:24.568Z,49.60
2023-01-24T16:04:52.498Z,49.60
2023-01-24T16:07:23.864Z,49.60
2023-01-24T16:09:54.237Z,49.60
2023-01-24T16:12:23.188Z,49.50
2023-01-24T16:15:07.752Z,49.60
2023-01-24T16:17:36.553Z,49.60
2023-01-24T16:20:08.301Z,49.60
2023-01-24T16:22:37.985Z,49.60
2023-01-24T16:25:06.484Z,49.60
2023-01-24T16:27:34.494Z,49.60
2023-01-24T16:30:02.861Z,50.20
2023-01-24T16:32:30.875Z,49.60
2023-01-24T16:34:58.759Z,49.60
2023-01-24T16:37:26.646Z,49.60
2023-01-24T16:39:57.267Z,49.50
2023-01-24T16:42:25.111Z,49.60
2023-01-24T16:44:57.497Z,49.60
2023-01-24T16:47:25.437Z,50.20
2023-01-24T16:49:57.553Z,49.60
2023-01-24T16:52:27.035Z,49.60
2023-01-24T16:54:56.345Z,49.60
2023-01-24T16:57:24.190Z,49.60
2023-01-24T16:59:52.059Z,49.60
2023-01-24T17:02:20.034Z,49.60
2023-01-24T17:04:49.697Z,49.60
2023-01-24T17:07:17.939Z,49.60
2023-01-24T17:09:45.814Z,49.60
2023-01-24T17:12:15.258Z,49.60
2023-01-24T17:14:43.824Z,49.60
2023-01-24T17:17:11.984Z,49.60
2023-01-24T17:19:39.964Z,49.50
2023-01-24T17:22:08.322Z,49.60
2023-01-24T17:24:36.301Z,49.60
2023-01-24T17:27:04.320Z,49.60
2023-01-24T17:29:33.514Z,49.50
2023-01-24T17:32:01.496Z,49.50
2023-01-24T17:34:29.498Z,49.50
2023-01-24T17:36:57.363Z,49.60
2023-01-24T17:39:25.293Z,49.50
2023-01-24T17:41:53.148Z,49.60
2023-01-24T17:44:21.281Z,49.50
2023-01-24T17:46:50.675Z,49.60
2023-01-24T17:49:18.652Z,49.60
2023-01-24T17:51:47.329Z,49.50
2023-01-24T17:54:17.266Z,49.60
2023-01-24T17:56:45.435Z,49.60
2023-01-24T17:59:13.311Z,49.50
2023-01-24T18:01:41.379Z,49.50
2023-01-24T18:04:10.613Z,49.50
2023-01-24T18:06:38.527Z,49.60
2023-01-24T18:09:06.361Z,49.60
2023-01-24T18:11:34.241Z,49.60
2023-01-24T18:14:02.105Z,49.60
2023-01-24T18:16:30.037Z,49.60
2023-01-24T18:18:57.948Z,49.60
2023-01-24T18:21:27.800Z,49.60
2023-01-24T18:23:57.696Z,49.50
2023-01-24T18:26:27.778Z,49.60
2023-01-24T18:28:57.331Z,49.50
2023-01-24T18:31:25.754Z,49.60
2023-01-24T18:33:55.209Z,49.60
2023-01-24T18:36:23.466Z,49.60
2023-01-24T18:38:53.060Z,49.50
2023-01-24T18:41:21.579Z,49.60
2023-01-24T18:43:49.713Z,49.50
2023-01-24T18:46:17.583Z,49.60
2023-01-24T18:48:45.979Z,49.50
2023-01-24T18:51:15.768Z,49.60
2023-01-24T18:53:44.187Z,49.50
2023-01-24T18:56:14.117Z,49.50
2023-01-24T18:58:42.090Z,49.50
2023-01-24T19:01:11.699Z,49.60
2023-01-24T19:03:39.935Z,49.50
2023-01-24T19:06:08.372Z,49.60
2023-01-24T19:08:36.424Z,50.20
2023-01-24T19:11:10.855Z,49.60
2023-01-24T19:13:40.345Z,49.50
2023-01-24T19:16:08.689Z,49.50
2023-01-24T19:18:36.844Z,49.60
2023-01-24T19:21:08.724Z,49.60
2023-01-24T19:23:37.522Z,49.70
2023-01-24T19:26:05.901Z,49.60
2023-01-24T19:28:34.264Z,49.60
2023-01-24T19:31:04.770Z,49.60
2023-01-24T19:33:33.807Z,49.60
2023-01-24T19:36:06.493Z,49.50
2023-01-24T19:38:34.536Z,49.60
2023-01-24T19:41:04.582Z,49.60
2023-01-24T19:43:32.597Z,49.60
2023-01-24T19:46:10.365Z,49.60
2023-01-24T19:48:41.567Z,49.60
2023-01-24T19:51:11.201Z,49.60
2023-01-24T19:53:39.676Z,49.60
2023-01-24T19:56:09.741Z,49.60
2023-01-24T19:58:38.105Z,49.60
2023-01-24T20:01:07.733Z,49.60
2023-01-24T20:03:37.351Z,49.70
2023-01-24T20:06:12.801Z,49.60
2023-01-24T20:08:44.981Z,49.60
2023-01-24T20:11:13.329Z,49.60
2023-01-24T20:13:41.273Z,49.60
2023-01-24T20:16:13.680Z,49.60
2023-01-24T20:18:41.609Z,49.60
2023-01-24T20:21:13.220Z,49.60
2023-01-24T20:23:41.124Z,49.60
2023-01-24T20:26:10.438Z,49.60
2023-01-24T20:28:39.260Z,49.60
2023-01-24T20:31:09.307Z,49.60
2023-01-24T20:33:37.669Z,49.60
2023-01-24T20:36:07.659Z,49.60
2023-01-24T20:38:38.258Z,49.60
2023-01-24T20:41:09.343Z,49.60
2023-01-24T20:43:38.223Z,49.60
2023-01-24T20:46:09.406Z,49.60
2023-01-24T20:48:38.373Z,49.60
2023-01-24T20:51:07.958Z,49.60
2023-01-24T20:53:37.221Z,49.60
2023-01-24T20:56:07.318Z,49.60
2023-01-24T20:58:35.744Z,49.60
2023-01-24T21:01:05.721Z,49.60
2023-01-24T21:03:33.840Z,49.60
2023-01-24T21:06:03.925Z,49.70
2023-01-24T21:08:33.212Z,49.70
2023-01-24T21:11:03.077Z,49.60
2023-01-24T21:13:40.570Z,49.70
2023-01-24T21:16:10.024Z,49.60
2023-01-24T21:18:38.048Z,49.60
2023-01-24T21:21:06.448Z,49.70
2023-01-24T21:23:34.522Z,50.30
2023-01-24T21:26:07.372Z,49.60
2023-01-24T21:28:36.458Z,49.60
2023-01-24T21:31:07.527Z,50.30
2023-01-24T21:33:35.507Z,49.60
2023-01-24T21:36:05.265Z,49.60
2023-01-24T21:38:34.423Z,49.60
2023-01-24T21:41:22.457Z,49.60
2023-01-24T21:43:52.301Z,49.60
2023-01-24T21:46:20.221Z,49.60
2023-01-24T21:49:05.500Z,49.60
2023-01-24T21:51:34.608Z,49.60
2023-01-24T21:54:07.058Z,49.60
2023-01-24T21:56:55.016Z,49.60
2023-01-24T21:59:25.859Z,49.60
2023-01-24T22:01:56.428Z,50.30
2023-01-24T22:04:25.563Z,49.60
2023-01-24T22:06:54.094Z,49.60
2023-01-24T22:09:22.227Z,49.60
2023-01-24T22:11:50.261Z,49.70
2023-01-24T22:14:20.628Z,49.60
2023-01-24T22:16:52.019Z,49.70
2023-01-24T22:19:22.309Z,49.70
2023-01-24T22:22:09.944Z,49.60
2023-01-24T22:24:49.842Z,49.70
2023-01-24T22:27:19.439Z,49.70
2023-01-24T22:29:49.380Z,49.60
2023-01-24T22:32:21.418Z,49.60
2023-01-24T22:34:50.872Z,49.60
2023-01-24T22:37:25.706Z,49.60
2023-01-24T22:39:54.075Z,49.70
2023-01-24T22:42:22.378Z,49.60
2023-01-24T22:44:50.737Z,49.60
2023-01-24T22:47:20.851Z,49.70
2023-01-24T22:49:48.905Z,49.60
2023-01-24T22:52:17.698Z,49.60
2023-01-24T22:54:45.665Z,49.60
2023-01-24T22:57:13.724Z,49.60
2023-01-24T22:59:41.600Z,49.70
2023-01-24T23:02:09.547Z,49.60
2023-01-24T23:04:39.918Z,49.70
2023-01-24T23:07:07.852Z,49.70
2023-01-24T23:09:35.778Z,49.70
2023-01-24T23:12:23.709Z,49.60
2023-01-24T23:15:09.266Z,49.70
2023-01-24T23:17:37.352Z,49.70
2023-01-24T23:20:24.519Z,49.70
2023-01-24T23:22:52.426Z,49.70
2023-01-24T23:25:20.276Z,49.80
2023-01-24T23:27:48.179Z,49.60
2023-01-24T23:30:41.716Z,49.80
2023-01-24T23:33:25.114Z,49.80
2023-01-24T23:35:54.364Z,49.70
2023-01-24T23:38:22.245Z,49.80
2023-01-24T23:40:50.131Z,49.70
2023-01-24T23:43:18.039Z,49.80
2023-01-24T23:45:46.054Z,49.70
2023-01-24T23:48:14.031Z,49.80
2023-01-24T23:50:42.050Z,49.80
2023-01-24T23:53:11.251Z,49.80
2023-01-24T23:55:39.093Z,49.80
2023-01-24T23:58:06.971Z,49.80
